Time;durP1;ratioP1;P1;durP2;ratioP2;P2;SDS_P1;SDS_P2;PMS_P1;PMS_P2;Temp;Humidity;BMP_temperature;BMP_pressure;BME280_temperature;BME280_humidity;BME280_pressure;Samples;Min_cycle;Max_cycle;Signal;HPM_P1;HPM_P2
2022/01/02 00:01:17;;;;;;;;;;;11.50;99.90;;;;;;4917817;28;19963;-84
2022/01/02 00:04:48;;;;;;;;;;;11.50;99.90;;;;;;4841920;29;19930;-84
2022/01/02 00:07:42;;;;;;;;;;;11.70;99.90;;;;;;4791208;29;21208;-84
2022/01/02 00:10:09;;;;;;;;;;;11.40;99.90;;;;;;4856793;29;20331;-84
2022/01/02 00:12:55;;;;;;;;;;;11.40;99.90;;;;;;4862945;29;20451;-84
2022/01/02 00:15:30;;;;;;;;;;;11.50;99.90;;;;;;4858688;29;19927;-84
2022/01/02 00:17:57;;;;;;;;;;;11.40;99.90;;;;;;4910673;28;19937;-84
2022/01/02 00:20:31;;;;;;;;;;;11.40;99.90;;;;;;4916438;28;20015;-84
2022/01/02 00:23:05;;;;;;;;;;;11.40;99.90;;;;;;4937473;28;20386;-84
2022/01/02 00:25:38;;;;;;;;;;;11.40;99.90;;;;;;4916713;28;19929;-84
2022/01/02 00:28:04;;;;;;;;;;;11.40;99.90;;;;;;4917512;28;19937;-85
2022/01/02 00:30:29;;;;;;;;;;;11.40;99.90;;;;;;4926384;28;19922;-84
2022/01/02 00:32:55;;;;;;;;;;;11.40;99.90;;;;;;4912375;29;19962;-84
2022/01/02 00:35:21;;;;;;;;;;;11.40;99.90;;;;;;4964838;28;19928;-85
2022/01/02 00:37:48;;;;;;;;;;;11.30;99.90;;;;;;5016973;28;19932;-84
2022/01/02 00:40:15;;;;;;;;;;;11.30;99.90;;;;;;4988616;28;20299;-84
2022/01/02 00:42:42;;;;;;;;;;;11.30;99.90;;;;;;5018679;28;20016;-84
2022/01/02 00:45:26;;;;;;;;;;;11.30;99.90;;;;;;5000854;28;19925;-84
2022/01/02 00:47:59;;;;;;;;;;;11.30;99.90;;;;;;5017249;28;20311;-85
2022/01/02 00:50:52;;;;;;;;;;;11.30;99.90;;;;;;4994719;28;19928;-85
2022/01/02 00:53:19;;;;;;;;;;;11.30;99.90;;;;;;4983638;28;19929;-85
2022/01/02 00:55:45;;;;;;;;;;;11.20;99.90;;;;;;4995656;28;19921;-85
2022/01/02 00:58:16;;;;;;;;;;;11.30;99.90;;;;;;4992459;28;19921;-85
2022/01/02 01:00:51;;;;;;;;;;;11.20;99.90;;;;;;4977719;28;19936;-84
2022/01/02 01:03:21;;;;;;;;;;;11.20;99.90;;;;;;4950924;28;20318;-85
2022/01/02 01:05:48;;;;;;;;;;;11.20;99.90;;;;;;5001818;28;20508;-85
2022/01/02 01:08:14;;;;;;;;;;;11.20;99.90;;;;;;4957056;28;19930;-84
2022/01/02 01:10:43;;;;;;;;;;;11.20;99.90;;;;;;4992584;28;19925;-85
2022/01/02 01:13:09;;;;;;;;;;;11.20;99.90;;;;;;5018767;28;20024;-84
2022/01/02 01:15:35;;;;;;;;;;;11.20;99.90;;;;;;4989842;28;20435;-85
2022/01/02 01:18:03;;;;;;;;;;;11.20;99.90;;;;;;4966026;28;19925;-85
2022/01/02 01:20:31;;;;;;;;;;;11.20;99.90;;;;;;5008417;28;19972;-85
2022/01/02 01:22:57;;;;;;;;;;;11.20;99.90;;;;;;5015242;28;19979;-84
2022/01/02 01:25:23;;;;;;;;;;;11.20;99.90;;;;;;4991550;28;19976;-85
2022/01/02 01:27:52;;;;;;;;;;;11.10;99.90;;;;;;4993218;28;19936;-84
2022/01/02 01:30:22;;;;;;;;;;;11.20;99.90;;;;;;4970839;28;19928;-85
2022/01/02 01:32:47;;;;;;;;;;;11.20;99.90;;;;;;4993009;28;19980;-85
2022/01/02 01:35:13;;;;;;;;;;;11.10;99.90;;;;;;4988955;28;19922;-84
2022/01/02 01:37:39;;;;;;;;;;;11.10;99.90;;;;;;4992672;28;19936;-84
2022/01/02 01:40:05;;;;;;;;;;;11.20;99.90;;;;;;4960543;28;19929;-84
2022/01/02 01:42:36;;;;;;;;;;;11.10;99.90;;;;;;4995035;28;19927;-84
2022/01/02 01:47:48;;;;;;;;;;;11.10;99.90;;;;;;4990984;28;19936;-84
2022/01/02 01:50:14;;;;;;;;;;;11.10;99.90;;;;;;4990856;28;19936;-84
2022/01/02 01:52:40;;;;;;;;;;;11.10;99.90;;;;;;5013013;28;19921;-84
2022/01/02 01:55:06;;;;;;;;;;;11.10;99.90;;;;;;5010448;28;19929;-84
2022/01/02 01:57:32;;;;;;;;;;;11.10;99.90;;;;;;4985910;28;20790;-84
2022/01/02 01:59:59;;;;;;;;;;;11.10;99.90;;;;;;5008850;28;19925;-84
2022/01/02 02:02:24;;;;;;;;;;;11.10;99.90;;;;;;4992114;28;20356;-84
2022/01/02 02:04:50;;;;;;;;;;;11.10;99.90;;;;;;4979628;28;20012;-84
2022/01/02 02:07:29;;;;;;;;;;;11.10;99.90;;;;;;5006084;28;20391;-84
2022/01/02 02:10:11;;;;;;;;;;;11.10;99.90;;;;;;4975329;28;19936;-84
2022/01/02 02:12:37;;;;;;;;;;;11.10;99.90;;;;;;4975841;28;20327;-84
2022/01/02 02:15:05;;;;;;;;;;;11.10;99.90;;;;;;4989419;28;19971;-84
2022/01/02 02:17:30;;;;;;;;;;;11.10;99.90;;;;;;5001634;28;19999;-84
2022/01/02 02:19:56;;;;;;;;;;;11.10;99.90;;;;;;4975434;28;20327;-84
2022/01/02 02:22:24;;;;;;;;;;;11.10;99.90;;;;;;4988249;28;19987;-84
2022/01/02 02:24:51;;;;;;;;;;;11.10;99.90;;;;;;4982927;28;19933;-84
2022/01/02 02:27:23;;;;;;;;;;;11.10;99.90;;;;;;4973005;28;19932;-84
2022/01/02 02:29:50;;;;;;;;;;;11.10;99.90;;;;;;4978259;28;20371;-84
2022/01/02 02:32:16;;;;;;;;;;;11.10;99.90;;;;;;4986713;28;20004;-84
2022/01/02 02:34:44;;;;;;;;;;;11.10;99.90;;;;;;4992380;28;20403;-84
2022/01/02 02:37:18;;;;;;;;;;;11.10;99.90;;;;;;4973496;28;19937;-84
2022/01/02 02:39:44;;;;;;;;;;;11.10;99.90;;;;;;4977812;28;19926;-84
2022/01/02 02:42:23;;;;;;;;;;;11.10;99.90;;;;;;4953598;28;19921;-84
2022/01/02 02:44:57;;;;;;;;;;;11.10;99.90;;;;;;4979914;28;20366;-84
2022/01/02 02:50:08;;;;;;;;;;;11.10;99.90;;;;;;5008079;28;19967;-84
2022/01/02 02:52:45;;;;;;;;;;;11.10;99.90;;;;;;5006689;28;19960;-84
2022/01/02 02:55:10;;;;;;;;;;;11.10;99.90;;;;;;5013083;28;20255;-84
2022/01/02 02:57:38;;;;;;;;;;;11.10;99.90;;;;;;5009576;28;20375;-84
2022/01/02 03:00:05;;;;;;;;;;;11.10;99.90;;;;;;5011149;28;19931;-85
2022/01/02 03:02:31;;;;;;;;;;;11.10;99.90;;;;;;4995750;28;19929;-84
2022/01/02 03:04:57;;;;;;;;;;;11.10;99.90;;;;;;4991029;28;20008;-84
2022/01/02 03:07:24;;;;;;;;;;;11.10;99.90;;;;;;4985615;28;20384;-84
2022/01/02 03:09:52;;;;;;;;;;;11.10;99.90;;;;;;5014099;28;19943;-84
2022/01/02 03:12:19;;;;;;;;;;;11.10;99.90;;;;;;4984211;28;19928;-84
2022/01/02 03:14:44;;;;;;;;;;;11.10;99.90;;;;;;4992383;28;19933;-85
2022/01/02 03:17:15;;;;;;;;;;;11.10;99.90;;;;;;4988103;28;19925;-84
2022/01/02 03:19:41;;;;;;;;;;;11.10;99.90;;;;;;5010205;28;20326;-84
2022/01/02 03:22:08;;;;;;;;;;;11.10;99.90;;;;;;4992888;28;19926;-84
2022/01/02 03:24:34;;;;;;;;;;;11.10;99.90;;;;;;4991775;28;20601;-84
2022/01/02 03:27:01;;;;;;;;;;;11.10;99.90;;;;;;5012233;28;19925;-84
2022/01/02 03:29:27;;;;;;;;;;;11.10;99.90;;;;;;5009173;28;19922;-84
2022/01/02 03:31:53;;;;;;;;;;;11.10;99.90;;;;;;4994811;28;19921;-84
2022/01/02 03:34:19;;;;;;;;;;;11.10;99.90;;;;;;5007144;28;19925;-84
2022/01/02 03:36:45;;;;;;;;;;;11.10;99.90;;;;;;5016018;28;20405;-84
2022/01/02 03:39:11;;;;;;;;;;;11.10;99.90;;;;;;5018617;28;19921;-84
2022/01/02 03:41:37;;;;;;;;;;;11.10;99.90;;;;;;4990022;28;20990;-84
2022/01/02 03:44:03;;;;;;;;;;;11.10;99.90;;;;;;4994981;28;19936;-84
2022/01/02 03:46:38;;;;;;;;;;;11.10;99.90;;;;;;5010608;28;19927;-84
2022/01/02 03:49:04;;;;;;;;;;;11.10;99.90;;;;;;4996293;28;19960;-84
2022/01/02 03:51:30;;;;;;;;;;;11.10;99.90;;;;;;4974150;28;20004;-84
2022/01/02 03:53:55;;;;;;;;;;;11.10;99.90;;;;;;4995858;28;19937;-84
2022/01/02 03:56:22;;;;;;;;;;;11.10;99.90;;;;;;4973702;28;19935;-84
2022/01/02 03:58:48;;;;;;;;;;;11.10;99.90;;;;;;4998452;28;19964;-84
2022/01/02 04:01:15;;;;;;;;;;;11.10;99.90;;;;;;5011444;28;20405;-84
2022/01/02 04:03:41;;;;;;;;;;;11.10;99.90;;;;;;5015624;28;20292;-84
2022/01/02 04:06:06;;;;;;;;;;;11.10;99.90;;;;;;4994245;28;19945;-84
2022/01/02 04:08:33;;;;;;;;;;;11.10;99.90;;;;;;4988059;28;21741;-84
2022/01/02 04:10:59;;;;;;;;;;;11.10;99.90;;;;;;4990391;28;20376;-84
2022/01/02 04:13:25;;;;;;;;;;;11.20;99.90;;;;;;4970588;28;19927;-84
2022/01/02 04:15:51;;;;;;;;;;;11.20;99.90;;;;;;4979482;28;19929;-84
2022/01/02 04:18:17;;;;;;;;;;;11.20;99.90;;;;;;5013885;28;20015;-84
2022/01/02 04:20:43;;;;;;;;;;;11.10;99.90;;;;;;4996906;28;20444;-84
2022/01/02 04:23:10;;;;;;;;;;;11.20;99.90;;;;;;4979889;28;19979;-84
2022/01/02 04:25:36;;;;;;;;;;;11.20;99.90;;;;;;4971070;28;19933;-84
2022/01/02 04:28:02;;;;;;;;;;;11.20;99.90;;;;;;4978322;28;19925;-84
2022/01/02 04:30:28;;;;;;;;;;;11.20;99.90;;;;;;4971156;28;20337;-84
2022/01/02 04:32:53;;;;;;;;;;;11.20;99.90;;;;;;5014011;28;19975;-84
2022/01/02 04:35:19;;;;;;;;;;;11.20;99.90;;;;;;4978210;28;19936;-84
2022/01/02 04:37:46;;;;;;;;;;;11.20;99.90;;;;;;4995480;28;19964;-84
2022/01/02 04:40:12;;;;;;;;;;;11.20;99.90;;;;;;4976958;28;19941;-84
2022/01/02 04:42:41;;;;;;;;;;;11.20;99.90;;;;;;4980174;28;19929;-84
2022/01/02 04:45:07;;;;;;;;;;;11.20;99.90;;;;;;4993692;28;19937;-84
2022/01/02 04:47:34;;;;;;;;;;;11.20;99.90;;;;;;4972759;28;20053;-84
2022/01/02 04:50:00;;;;;;;;;;;11.20;99.90;;;;;;4993939;28;20028;-84
2022/01/02 04:52:26;;;;;;;;;;;11.20;99.90;;;;;;4988216;28;19922;-84
2022/01/02 04:54:52;;;;;;;;;;;11.20;99.90;;;;;;5016954;28;19975;-84
2022/01/02 04:57:18;;;;;;;;;;;11.20;99.90;;;;;;4989191;28;20335;-84
2022/01/02 04:59:44;;;;;;;;;;;11.20;99.90;;;;;;5014388;28;19972;-84
2022/01/02 05:02:09;;;;;;;;;;;11.20;99.90;;;;;;4992246;28;19965;-84
2022/01/02 05:04:36;;;;;;;;;;;11.20;99.90;;;;;;4990909;28;20325;-84
2022/01/02 05:07:02;;;;;;;;;;;11.30;99.90;;;;;;5016955;28;19929;-84
2022/01/02 05:09:28;;;;;;;;;;;11.30;99.90;;;;;;4989921;28;20011;-84
2022/01/02 05:11:53;;;;;;;;;;;11.30;99.90;;;;;;4991514;28;20020;-85
2022/01/02 05:14:29;;;;;;;;;;;11.30;99.90;;;;;;5005713;28;19973;-85
2022/01/02 05:16:55;;;;;;;;;;;11.30;99.90;;;;;;4987507;28;20281;-85
2022/01/02 05:19:21;;;;;;;;;;;11.30;99.90;;;;;;4988623;28;19929;-84
2022/01/02 05:21:47;;;;;;;;;;;11.40;99.90;;;;;;4995943;28;19921;-83
2022/01/02 05:24:15;;;;;;;;;;;11.40;99.90;;;;;;4977205;28;20347;-84
2022/01/02 05:26:42;;;;;;;;;;;11.40;99.90;;;;;;5015006;28;20267;-84
2022/01/02 05:29:08;;;;;;;;;;;11.40;99.90;;;;;;4996326;28;19936;-84
2022/01/02 05:31:37;;;;;;;;;;;11.40;99.90;;;;;;4992335;28;19925;-84
2022/01/02 05:34:04;;;;;;;;;;;11.40;99.90;;;;;;5015211;28;19962;-84
2022/01/02 05:36:30;;;;;;;;;;;11.40;99.90;;;;;;4990888;28;19921;-84
2022/01/02 05:38:56;;;;;;;;;;;11.40;99.90;;;;;;4991983;28;19968;-84
2022/01/02 05:41:22;;;;;;;;;;;11.40;99.90;;;;;;5005105;28;19925;-84
2022/01/02 05:43:48;;;;;;;;;;;11.40;99.90;;;;;;4993446;28;21771;-84
2022/01/02 05:46:14;;;;;;;;;;;11.40;99.90;;;;;;4987502;28;19930;-84
2022/01/02 05:48:40;;;;;;;;;;;11.40;99.90;;;;;;4990910;28;19929;-84
2022/01/02 05:51:06;;;;;;;;;;;11.40;99.90;;;;;;4974359;28;20380;-84
2022/01/02 05:53:32;;;;;;;;;;;11.40;99.90;;;;;;4997538;28;19983;-84
2022/01/02 05:55:57;;;;;;;;;;;11.50;99.90;;;;;;4974403;28;20068;-85
2022/01/02 05:58:24;;;;;;;;;;;11.50;99.90;;;;;;4971247;28;19923;-84
2022/01/02 06:00:50;;;;;;;;;;;11.50;99.90;;;;;;4986767;28;19928;-84
2022/01/02 06:03:15;;;;;;;;;;;11.50;99.90;;;;;;4988912;28;19975;-84
2022/01/02 06:05:41;;;;;;;;;;;11.50;99.90;;;;;;4994730;28;19930;-84
2022/01/02 06:08:06;;;;;;;;;;;11.60;99.90;;;;;;4992189;28;19928;-84
2022/01/02 06:10:33;;;;;;;;;;;11.60;99.90;;;;;;5009653;28;19929;-84
2022/01/02 06:12:59;;;;;;;;;;;11.70;99.90;;;;;;4990356;28;20422;-84
2022/01/02 06:15:27;;;;;;;;;;;11.70;99.90;;;;;;4987236;28;20032;-85
2022/01/02 06:17:53;;;;;;;;;;;11.70;99.90;;;;;;5010482;28;19925;-85
2022/01/02 06:20:28;;;;;;;;;;;11.70;99.90;;;;;;5009392;28;20020;-84
2022/01/02 06:22:54;;;;;;;;;;;11.80;99.90;;;;;;4989041;28;20342;-85
2022/01/02 06:25:20;;;;;;;;;;;11.80;99.90;;;;;;4969084;28;19933;-84
2022/01/02 06:27:47;;;;;;;;;;;11.80;99.90;;;;;;4961771;28;19936;-85
2022/01/02 06:30:13;;;;;;;;;;;11.90;99.90;;;;;;4972060;28;19933;-84
2022/01/02 06:32:42;;;;;;;;;;;11.90;99.90;;;;;;5010935;28;19921;-84
2022/01/02 06:35:11;;;;;;;;;;;11.90;99.90;;;;;;4990462;28;20022;-84
2022/01/02 06:37:36;;;;;;;;;;;11.90;99.90;;;;;;4988424;28;19936;-85
2022/01/02 06:40:04;;;;;;;;;;;12.00;99.90;;;;;;4988427;28;19926;-85
2022/01/02 06:42:30;;;;;;;;;;;12.00;99.90;;;;;;4968390;28;19925;-85
2022/01/02 06:44:55;;;;;;;;;;;12.00;99.90;;;;;;5020203;28;20697;-84
2022/01/02 06:47:22;;;;;;;;;;;12.00;99.90;;;;;;5009545;28;19921;-84
2022/01/02 06:49:48;;;;;;;;;;;12.00;99.90;;;;;;5012989;28;20519;-84
2022/01/02 06:52:17;;;;;;;;;;;12.10;99.90;;;;;;5009218;28;19972;-84
2022/01/02 06:54:44;;;;;;;;;;;12.10;99.90;;;;;;4976433;28;19925;-85
2022/01/02 06:57:10;;;;;;;;;;;12.20;99.90;;;;;;4980922;28;19930;-85
2022/01/02 06:59:36;;;;;;;;;;;12.20;99.90;;;;;;4982604;28;19932;-84
2022/01/02 07:02:03;;;;;;;;;;;12.20;99.90;;;;;;4978367;28;20012;-85
2022/01/02 07:04:29;;;;;;;;;;;12.20;99.90;;;;;;4991948;28;19983;-84
2022/01/02 07:06:54;;;;;;;;;;;12.20;99.90;;;;;;4975379;28;19921;-84
2022/01/02 07:09:20;;;;;;;;;;;12.20;99.90;;;;;;4977621;28;19925;-85
2022/01/02 07:11:45;;;;;;;;;;;12.20;99.90;;;;;;4980908;28;19928;-85
2022/01/02 07:14:11;;;;;;;;;;;12.20;99.90;;;;;;4993698;28;19921;-85
2022/01/02 07:16:36;;;;;;;;;;;12.20;99.90;;;;;;4991964;28;20013;-85
2022/01/02 07:19:02;;;;;;;;;;;12.20;99.90;;;;;;4992535;28;19984;-84
2022/01/02 07:21:28;;;;;;;;;;;12.10;99.90;;;;;;4989028;28;19929;-84
2022/01/02 07:23:54;;;;;;;;;;;12.10;99.90;;;;;;4976433;28;20302;-85
2022/01/02 07:26:21;;;;;;;;;;;12.10;99.90;;;;;;4980215;28;20019;-84
2022/01/02 07:28:46;;;;;;;;;;;12.10;99.90;;;;;;4977820;28;19971;-84
2022/01/02 07:31:14;;;;;;;;;;;12.10;99.90;;;;;;4994516;28;20023;-85
2022/01/02 07:33:39;;;;;;;;;;;12.00;99.90;;;;;;4995691;28;19932;-85
2022/01/02 07:36:05;;;;;;;;;;;12.00;99.90;;;;;;4999561;28;19929;-84
2022/01/02 07:38:31;;;;;;;;;;;12.00;99.90;;;;;;4981778;28;19991;-84
2022/01/02 07:40:56;;;;;;;;;;;12.00;99.90;;;;;;4997830;28;20391;-84
2022/01/02 07:43:31;;;;;;;;;;;12.00;99.90;;;;;;5012111;28;19925;-84
2022/01/02 07:45:57;;;;;;;;;;;12.00;99.90;;;;;;5018297;28;20438;-85
2022/01/02 07:48:22;;;;;;;;;;;11.90;99.90;;;;;;4997819;28;19921;-85
2022/01/02 07:50:49;;;;;;;;;;;12.00;99.90;;;;;;4983384;28;19972;-85
2022/01/02 07:53:17;;;;;;;;;;;11.90;99.90;;;;;;5011809;28;19929;-85
2022/01/02 07:55:43;;;;;;;;;;;11.90;99.90;;;;;;4999013;28;19921;-84
2022/01/02 07:58:09;;;;;;;;;;;11.90;99.90;;;;;;4980901;28;20303;-84
2022/01/02 08:00:35;;;;;;;;;;;11.90;99.90;;;;;;4980950;28;19932;-84
2022/01/02 08:03:01;;;;;;;;;;;11.90;99.90;;;;;;5000074;28;19921;-84
2022/01/02 08:05:27;;;;;;;;;;;11.90;99.90;;;;;;4997031;28;19932;-84
2022/01/02 08:07:55;;;;;;;;;;;11.90;99.90;;;;;;4969480;28;19929;-84
2022/01/02 08:10:21;;;;;;;;;;;11.90;99.90;;;;;;4976920;28;19928;-84
2022/01/02 08:12:46;;;;;;;;;;;11.90;99.90;;;;;;5001954;28;19921;-84
2022/01/02 08:15:38;;;;;;;;;;;11.90;99.90;;;;;;4980530;28;19925;-84
2022/01/02 08:18:04;;;;;;;;;;;11.80;99.90;;;;;;5000243;28;20465;-84
2022/01/02 08:20:30;;;;;;;;;;;11.80;99.90;;;;;;4985686;28;20261;-84
2022/01/02 08:22:56;;;;;;;;;;;11.80;99.90;;;;;;4994524;28;19941;-84
2022/01/02 08:25:24;;;;;;;;;;;11.70;99.90;;;;;;4971278;28;19926;-85
2022/01/02 08:27:50;;;;;;;;;;;11.70;99.90;;;;;;4995439;28;19929;-84
2022/01/02 08:30:15;;;;;;;;;;;11.70;99.90;;;;;;5007433;28;19932;-84
2022/01/02 08:32:47;;;;;;;;;;;11.70;99.90;;;;;;5000885;28;20015;-84
2022/01/02 08:35:13;;;;;;;;;;;11.70;99.90;;;;;;4979253;28;20020;-84
2022/01/02 08:37:39;;;;;;;;;;;11.70;99.90;;;;;;4993942;28;20372;-84
2022/01/02 08:40:07;;;;;;;;;;;11.70;99.90;;;;;;4983877;28;19928;-84
2022/01/02 08:42:34;;;;;;;;;;;11.70;99.90;;;;;;4976486;28;19935;-84
2022/01/02 08:45:00;;;;;;;;;;;11.70;99.90;;;;;;4997147;28;20363;-84
2022/01/02 08:47:26;;;;;;;;;;;11.90;99.90;;;;;;4970380;28;19940;-83
2022/01/02 08:50:06;;;;;;;;;;;11.70;99.90;;;;;;4924062;28;20360;-84
2022/01/02 08:52:35;;;;;;;;;;;11.70;99.90;;;;;;4953848;28;19937;-83
2022/01/02 08:55:01;;;;;;;;;;;11.70;99.90;;;;;;4954757;28;19934;-84
2022/01/02 08:57:26;;;;;;;;;;;11.70;99.90;;;;;;4940191;28;20408;-84
2022/01/02 08:59:53;;;;;;;;;;;11.70;99.90;;;;;;4939490;28;19922;-84
2022/01/02 09:02:19;;;;;;;;;;;11.70;99.90;;;;;;4935446;28;19926;-84
2022/01/02 09:04:44;;;;;;;;;;;11.60;99.90;;;;;;4911403;28;19969;-84
2022/01/02 09:07:11;;;;;;;;;;;11.60;99.90;;;;;;4926715;28;19927;-84
2022/01/02 09:09:37;;;;;;;;;;;11.60;99.90;;;;;;4937423;28;19934;-84
2022/01/02 09:12:02;;;;;;;;;;;11.60;99.90;;;;;;4953491;28;19933;-84
2022/01/02 09:14:29;;;;;;;;;;;11.60;99.90;;;;;;4931156;28;19926;-84
2022/01/02 09:16:54;;;;;;;;;;;11.60;99.90;;;;;;4936928;28;19961;-84
2022/01/02 09:19:20;;;;;;;;;;;11.70;99.90;;;;;;4932455;28;20116;-83
2022/01/02 09:21:45;;;;;;;;;;;11.60;99.90;;;;;;4966725;28;20279;-83
2022/01/02 09:24:11;;;;;;;;;;;11.60;99.90;;;;;;4992543;28;19927;-83
2022/01/02 09:26:39;;;;;;;;;;;11.70;99.90;;;;;;4992546;28;19968;-83
2022/01/02 09:29:05;;;;;;;;;;;11.70;99.90;;;;;;4986092;28;20378;-83
2022/01/02 09:31:30;;;;;;;;;;;11.70;99.90;;;;;;4972890;28;19921;-84
2022/01/02 09:33:56;;;;;;;;;;;11.70;99.90;;;;;;4985667;28;20383;-83
2022/01/02 09:36:22;;;;;;;;;;;11.70;99.90;;;;;;5011753;28;19921;-84
2022/01/02 09:38:47;;;;;;;;;;;11.70;99.90;;;;;;4978381;28;20288;-83
2022/01/02 09:41:13;;;;;;;;;;;11.80;99.90;;;;;;4989622;28;19932;-84
2022/01/02 09:43:41;;;;;;;;;;;11.80;99.90;;;;;;4987390;28;20309;-84
2022/01/02 09:46:31;;;;;;;;;;;11.80;99.90;;;;;;4995364;28;20292;-83
2022/01/02 09:48:57;;;;;;;;;;;11.80;99.90;;;;;;5008377;28;19975;-83
2022/01/02 09:51:24;;;;;;;;;;;11.80;99.90;;;;;;4987619;28;19926;-84
2022/01/02 09:53:50;;;;;;;;;;;11.80;99.90;;;;;;5009105;28;19925;-84
2022/01/02 09:56:15;;;;;;;;;;;11.80;99.90;;;;;;5008779;28;20386;-83
2022/01/02 09:58:43;;;;;;;;;;;11.80;99.90;;;;;;4978734;28;19928;-83
2022/01/02 10:01:18;;;;;;;;;;;11.90;99.90;;;;;;5011437;28;20457;-84
2022/01/02 10:04:06;;;;;;;;;;;11.90;99.90;;;;;;4993732;28;20422;-84
2022/01/02 10:06:48;;;;;;;;;;;11.90;99.90;;;;;;4990522;28;20529;-83
2022/01/02 10:09:34;;;;;;;;;;;11.90;99.90;;;;;;4991463;28;19936;-83
2022/01/02 10:12:19;;;;;;;;;;;11.90;99.90;;;;;;5012430;28;19936;-83
2022/01/02 10:14:44;;;;;;;;;;;12.00;99.90;;;;;;5009920;28;19931;-83
2022/01/02 10:17:10;;;;;;;;;;;12.00;99.90;;;;;;5010617;28;19925;-84
2022/01/02 10:19:38;;;;;;;;;;;12.00;99.90;;;;;;5008234;28;19936;-84
2022/01/02 10:22:05;;;;;;;;;;;11.90;99.90;;;;;;4993684;28;19925;-84
2022/01/02 10:24:33;;;;;;;;;;;12.00;99.90;;;;;;5007928;28;19940;-85
2022/01/02 10:27:02;;;;;;;;;;;12.00;99.90;;;;;;5012257;28;20059;-84
2022/01/02 10:29:28;;;;;;;;;;;12.00;99.90;;;;;;4991329;28;19943;-84
2022/01/02 10:31:53;;;;;;;;;;;12.00;99.90;;;;;;4990885;28;19956;-84
2022/01/02 10:34:29;;;;;;;;;;;12.00;99.90;;;;;;4995844;28;19960;-82
2022/01/02 10:36:55;;;;;;;;;;;12.00;99.90;;;;;;4978384;28;19922;-84
2022/01/02 10:39:22;;;;;;;;;;;11.90;99.90;;;;;;4962554;28;19935;-83
2022/01/02 10:41:48;;;;;;;;;;;12.00;99.90;;;;;;4990515;28;19932;-81
2022/01/02 10:44:17;;;;;;;;;;;12.00;99.90;;;;;;4975084;28;19972;-83
2022/01/02 10:47:01;;;;;;;;;;;11.90;99.90;;;;;;4995044;28;20264;-80
2022/01/02 10:49:45;;;;;;;;;;;12.00;99.90;;;;;;4993375;28;20350;-83
2022/01/02 10:52:27;;;;;;;;;;;12.00;99.90;;;;;;4994352;28;19932;-84
2022/01/02 10:54:52;;;;;;;;;;;12.00;99.90;;;;;;4980741;28;19929;-83
2022/01/02 10:57:19;;;;;;;;;;;12.00;99.90;;;;;;4958042;28;19921;-83
2022/01/02 10:59:45;;;;;;;;;;;12.10;99.90;;;;;;4981131;28;19932;-83
2022/01/02 11:02:11;;;;;;;;;;;12.10;99.90;;;;;;4974042;28;19925;-84
2022/01/02 11:04:36;;;;;;;;;;;12.10;99.90;;;;;;4970046;28;19937;-83
2022/01/02 11:07:02;;;;;;;;;;;12.20;99.90;;;;;;4958746;28;19984;-82
2022/01/02 11:09:28;;;;;;;;;;;12.20;99.90;;;;;;4969040;28;19936;-82
2022/01/02 11:11:53;;;;;;;;;;;12.20;99.90;;;;;;4977285;28;20386;-84
2022/01/02 11:14:19;;;;;;;;;;;12.30;99.90;;;;;;4956034;28;20275;-84
2022/01/02 11:16:44;;;;;;;;;;;12.20;99.90;;;;;;4986930;28;19975;-84
2022/01/02 11:19:11;;;;;;;;;;;12.20;99.90;;;;;;5005180;28;20376;-84
2022/01/02 11:21:38;;;;;;;;;;;12.30;99.90;;;;;;4973044;28;19932;-84
2022/01/02 11:24:06;;;;;;;;;;;12.30;99.90;;;;;;4977917;28;19925;-84
2022/01/02 11:26:54;;;;;;;;;;;12.30;99.90;;;;;;4972946;28;20602;-84
2022/01/02 11:29:26;;;;;;;;;;;12.30;99.90;;;;;;4988369;28;19922;-83
2022/01/02 11:31:52;;;;;;;;;;;12.20;99.90;;;;;;4968276;28;19922;-84
2022/01/02 11:34:24;;;;;;;;;;;12.20;99.90;;;;;;4992804;28;20338;-83
2022/01/02 11:36:52;;;;;;;;;;;12.20;99.90;;;;;;5013093;28;19921;-83
2022/01/02 11:39:18;;;;;;;;;;;12.20;99.90;;;;;;4972145;28;19927;-84
2022/01/02 11:41:47;;;;;;;;;;;12.20;99.90;;;;;;4958669;28;19929;-83
2022/01/02 11:44:19;;;;;;;;;;;12.20;99.90;;;;;;4960983;28;19925;-83
2022/01/02 11:46:46;;;;;;;;;;;12.10;99.90;;;;;;4996248;28;20418;-84
2022/01/02 11:49:22;;;;;;;;;;;12.10;99.90;;;;;;4975856;28;19929;-83
2022/01/02 11:51:48;;;;;;;;;;;12.10;99.90;;;;;;4988266;28;19928;-84
2022/01/02 11:54:32;;;;;;;;;;;12.10;99.90;;;;;;4993456;28;19930;-84
2022/01/02 11:56:58;;;;;;;;;;;12.10;99.90;;;;;;4993348;28;19924;-82
2022/01/02 11:59:39;;;;;;;;;;;12.10;99.90;;;;;;4977212;28;20012;-82
2022/01/02 12:02:14;;;;;;;;;;;12.20;99.90;;;;;;4994492;28;19959;-80
2022/01/02 12:04:59;;;;;;;;;;;12.10;99.90;;;;;;4989505;28;20364;-83
2022/01/02 12:07:33;;;;;;;;;;;12.10;99.90;;;;;;5008025;28;19917;-83
2022/01/02 12:10:17;;;;;;;;;;;12.10;99.90;;;;;;4997244;28;20299;-83
2022/01/02 12:13:04;;;;;;;;;;;12.10;99.90;;;;;;4994496;28;20681;-82
2022/01/02 12:15:29;;;;;;;;;;;12.10;99.90;;;;;;4987042;28;20055;-83
2022/01/02 12:18:14;;;;;;;;;;;12.10;99.90;;;;;;5013513;28;19924;-83
2022/01/02 12:20:49;;;;;;;;;;;12.10;99.90;;;;;;4973868;28;19929;-82
2022/01/02 12:23:42;;;;;;;;;;;12.10;99.90;;;;;;4970823;28;20674;-83
2022/01/02 12:26:12;;;;;;;;;;;12.10;99.90;;;;;;4988978;28;20346;-83
2022/01/02 12:28:38;;;;;;;;;;;12.10;99.90;;;;;;5017353;28;20615;-82
2022/01/02 12:31:04;;;;;;;;;;;12.10;99.90;;;;;;4985641;28;19983;-82
2022/01/02 12:33:30;;;;;;;;;;;12.10;99.90;;;;;;4974131;28;19929;-82
2022/01/02 12:35:59;;;;;;;;;;;12.10;99.90;;;;;;5008034;28;19944;-82
2022/01/02 12:38:24;;;;;;;;;;;12.10;99.90;;;;;;4975993;28;20192;-82
2022/01/02 12:40:53;;;;;;;;;;;12.10;99.90;;;;;;4982729;28;19929;-82
2022/01/02 12:43:26;;;;;;;;;;;12.10;99.90;;;;;;4976663;28;19933;-81
2022/01/02 12:45:55;;;;;;;;;;;12.10;99.90;;;;;;4990468;28;20007;-82
2022/01/02 12:48:32;;;;;;;;;;;12.10;99.90;;;;;;4967400;28;19978;-83
2022/01/02 12:51:15;;;;;;;;;;;12.00;99.90;;;;;;4982644;28;19982;-82
2022/01/02 12:53:40;;;;;;;;;;;12.00;99.90;;;;;;5003168;28;19929;-82
2022/01/02 12:56:06;;;;;;;;;;;12.00;99.90;;;;;;4997831;28;20253;-82
2022/01/02 12:58:41;;;;;;;;;;;12.00;99.90;;;;;;5016875;28;19929;-83
2022/01/02 13:01:07;;;;;;;;;;;12.00;99.90;;;;;;5017012;28;19975;-83
2022/01/02 13:03:37;;;;;;;;;;;12.00;99.90;;;;;;4987726;28;19930;-83
2022/01/02 13:06:02;;;;;;;;;;;12.00;99.90;;;;;;4991830;28;19996;-81
2022/01/02 13:08:28;;;;;;;;;;;12.00;99.90;;;;;;4970818;28;20359;-82
2022/01/02 13:10:53;;;;;;;;;;;12.00;99.90;;;;;;4996440;28;19924;-82
2022/01/02 13:13:26;;;;;;;;;;;12.00;99.90;;;;;;4976687;28;19925;-83
2022/01/02 13:15:51;;;;;;;;;;;12.00;99.90;;;;;;4982416;28;20020;-83
2022/01/02 13:18:17;;;;;;;;;;;12.00;99.90;;;;;;4979694;28;20015;-82
2022/01/02 13:20:43;;;;;;;;;;;12.00;99.90;;;;;;4970809;28;19984;-83
2022/01/02 13:23:09;;;;;;;;;;;11.90;99.90;;;;;;4972873;28;20016;-83
2022/01/02 13:25:38;;;;;;;;;;;11.90;99.90;;;;;;4962466;28;20017;-83
2022/01/02 13:28:05;;;;;;;;;;;11.90;99.90;;;;;;4978806;28;20268;-83
2022/01/02 13:30:37;;;;;;;;;;;11.90;99.90;;;;;;4979370;28;19925;-83
2022/01/02 13:33:15;;;;;;;;;;;11.80;99.90;;;;;;4984517;28;19936;-83
2022/01/02 13:35:41;;;;;;;;;;;11.80;99.90;;;;;;4984605;28;19936;-83
2022/01/02 13:38:07;;;;;;;;;;;11.80;99.90;;;;;;4975354;28;19930;-83
2022/01/02 13:40:34;;;;;;;;;;;11.70;99.90;;;;;;4978871;28;19933;-83
2022/01/02 13:43:29;;;;;;;;;;;11.70;99.90;;;;;;4997447;28;19928;-83
2022/01/02 13:45:57;;;;;;;;;;;11.70;99.90;;;;;;4995550;28;19984;-83
2022/01/02 13:48:28;;;;;;;;;;;11.60;99.90;;;;;;4975763;28;20051;-83
2022/01/02 13:50:55;;;;;;;;;;;11.60;99.90;;;;;;4997496;28;19928;-83
2022/01/02 13:53:22;;;;;;;;;;;11.60;99.90;;;;;;4996763;28;19974;-83
2022/01/02 13:55:49;;;;;;;;;;;11.60;99.90;;;;;;4983982;28;20058;-83
2022/01/02 13:58:24;;;;;;;;;;;11.60;99.90;;;;;;4970610;28;19922;-83
2022/01/02 14:00:57;;;;;;;;;;;11.50;99.90;;;;;;4980991;28;20012;-82
2022/01/02 14:03:28;;;;;;;;;;;11.50;99.90;;;;;;4984081;28;19926;-82
2022/01/02 14:05:54;;;;;;;;;;;11.50;99.90;;;;;;4979875;28;19980;-81
2022/01/02 14:08:20;;;;;;;;;;;11.40;99.90;;;;;;4958889;28;19921;-81
2022/01/02 14:10:45;;;;;;;;;;;11.40;99.90;;;;;;4959572;28;19975;-79
2022/01/02 14:13:16;;;;;;;;;;;11.40;99.90;;;;;;4946710;28;19929;-81
2022/01/02 14:15:42;;;;;;;;;;;11.40;99.90;;;;;;4974282;28;19932;-82
2022/01/02 14:18:08;;;;;;;;;;;11.40;99.90;;;;;;4977043;28;20307;-82
2022/01/02 14:20:37;;;;;;;;;;;11.30;99.90;;;;;;4990892;28;20390;-82
2022/01/02 14:23:06;;;;;;;;;;;11.30;99.90;;;;;;4963033;28;19937;-82
2022/01/02 14:25:33;;;;;;;;;;;11.30;99.90;;;;;;5005360;28;21612;-82
2022/01/02 14:27:59;;;;;;;;;;;11.30;99.90;;;;;;4995983;28;20068;-82
2022/01/02 14:30:24;;;;;;;;;;;11.20;99.90;;;;;;5002010;28;20012;-82